createdAt,value
2019-03-22T00:02:13.857Z,4.80
2019-03-22T00:04:55.729Z,4.40
2019-03-22T00:07:37.641Z,4.60
2019-03-22T00:13:19.177Z,4.97
2019-03-22T00:15:51.504Z,4.50
2019-03-22T00:18:41.883Z,4.30
2019-03-22T00:21:31.990Z,4.27
2019-03-22T00:24:22.150Z,4.30
2019-03-22T00:27:16.711Z,3.87
2019-03-22T00:29:45.424Z,4.47
2019-03-22T00:32:35.271Z,4.73
2019-03-22T00:38:05.096Z,4.53
2019-03-22T00:40:36.478Z,4.70
2019-03-22T00:43:26.723Z,5.00
2019-03-22T00:46:16.859Z,4.73
2019-03-22T00:48:48.294Z,4.53
2019-03-22T00:51:38.781Z,5.27
2019-03-22T00:57:28.069Z,4.50
2019-03-22T00:59:52.856Z,5.30
2019-03-22T01:02:43.113Z,5.37
2019-03-22T01:05:32.985Z,4.90
2019-03-22T01:08:04.759Z,5.30
2019-03-22T01:10:36.310Z,4.60
2019-03-22T01:13:26.190Z,4.50
2019-03-22T01:16:16.364Z,4.63
2019-03-22T01:19:06.297Z,4.63
2019-03-22T01:21:37.528Z,5.23
2019-03-22T01:24:09.238Z,4.97
2019-03-22T01:26:49.779Z,4.90
2019-03-22T01:29:21.044Z,5.30
2019-03-22T01:32:10.851Z,5.40
2019-03-22T01:35:00.699Z,5.40
2019-03-22T01:37:50.724Z,5.10
2019-03-22T01:40:21.863Z,5.63
2019-03-22T01:42:54.003Z,8.83
2019-03-22T01:45:44.113Z,5.57
2019-03-22T01:48:34.197Z,4.97
2019-03-22T01:51:24.264Z,5.80
2019-03-22T01:54:14.388Z,6.20
2019-03-22T01:57:04.209Z,7.03
2019-03-22T01:59:54.044Z,5.23
2019-03-22T02:02:35.305Z,5.43
2019-03-22T02:05:06.995Z,4.90
2019-03-22T02:07:38.126Z,4.73
2019-03-22T02:10:09.836Z,5.63
2019-03-22T02:12:59.588Z,5.20
2019-03-22T02:15:49.424Z,5.43
2019-03-22T02:18:20.489Z,4.67
2019-03-22T02:20:53.694Z,5.10
2019-03-22T02:23:43.803Z,5.47
2019-03-22T02:26:33.803Z,4.67
2019-03-22T02:29:23.566Z,4.93
2019-03-22T02:31:54.661Z,4.63
2019-03-22T02:34:26.076Z,5.17
2019-03-22T02:37:15.850Z,4.60
2019-03-22T02:40:06.565Z,4.57
2019-03-22T02:42:56.826Z,5.43
2019-03-22T02:45:46.912Z,4.87
2019-03-22T02:48:36.644Z,5.27
2019-03-22T02:51:26.792Z,4.67
2019-03-22T02:54:18.111Z,5.57
2019-03-22T02:57:08.292Z,5.50
2019-03-22T02:59:58.137Z,5.00
2019-03-22T03:02:47.869Z,4.47
2019-03-22T03:05:19.081Z,4.70
2019-03-22T03:08:08.928Z,4.90
2019-03-22T03:10:40.117Z,5.33
2019-03-22T03:13:11.332Z,5.10
2019-03-22T03:16:01.466Z,5.60
2019-03-22T03:18:32.725Z,5.60
2019-03-22T03:21:22.597Z,4.63
2019-03-22T03:23:53.841Z,5.33
2019-03-22T03:26:25.384Z,5.10
2019-03-22T03:29:15.401Z,5.73
2019-03-22T03:32:05.205Z,5.27
2019-03-22T03:34:36.300Z,5.17
2019-03-22T03:37:26.124Z,5.40
2019-03-22T03:40:16.220Z,4.70
2019-03-22T03:43:06.455Z,5.23
2019-03-22T03:45:56.482Z,5.27
2019-03-22T03:48:29.164Z,4.97
2019-03-22T03:51:19.322Z,5.13
2019-03-22T03:54:09.380Z,5.17
2019-03-22T03:56:59.500Z,5.13
2019-03-22T03:59:30.571Z,5.93
2019-03-22T04:02:20.663Z,5.80
2019-03-22T04:05:14.228Z,5.60
2019-03-22T04:07:43.678Z,5.60
2019-03-22T04:10:34.138Z,5.30
2019-03-22T04:13:23.883Z,5.67
2019-03-22T04:16:13.965Z,5.47
2019-03-22T04:18:45.064Z,5.47
2019-03-22T04:21:16.190Z,6.13
2019-03-22T04:23:57.637Z,5.50
2019-03-22T04:29:21.441Z,5.77
2019-03-22T04:32:02.192Z,5.23
2019-03-22T04:34:52.331Z,6.53
2019-03-22T04:37:42.177Z,6.13
2019-03-22T04:40:32.049Z,5.73
2019-03-22T04:43:22.042Z,5.50
2019-03-22T04:46:12.479Z,5.97
2019-03-22T04:52:04.343Z,6.40
2019-03-22T04:54:55.541Z,6.50
2019-03-22T04:57:45.696Z,6.53
2019-03-22T05:00:55.745Z,6.63
2019-03-22T05:03:45.851Z,6.80
2019-03-22T05:06:38.530Z,6.80
2019-03-22T05:12:11.375Z,6.20
2019-03-22T05:15:03.499Z,6.83
2019-03-22T05:17:54.106Z,8.23
2019-03-22T05:20:27.152Z,8.17
2019-03-22T05:22:59.938Z,6.70
2019-03-22T05:25:33.209Z,6.80
2019-03-22T05:28:25.733Z,6.53
2019-03-22T05:31:34.019Z,6.50
2019-03-22T05:34:05.192Z,7.40
2019-03-22T05:36:55.638Z,8.10
2019-03-22T05:39:45.769Z,8.07
2019-03-22T05:42:36.202Z,6.80
2019-03-22T05:45:26.306Z,7.03
2019-03-22T05:51:06.127Z,7.17
2019-03-22T05:53:37.398Z,8.13
2019-03-22T05:56:12.807Z,8.13
2019-03-22T05:58:45.214Z,7.63
2019-03-22T06:01:35.705Z,7.90
2019-03-22T06:04:25.796Z,7.33
2019-03-22T06:06:57.346Z,7.33
2019-03-22T06:09:28.519Z,8.40
2019-03-22T06:12:18.558Z,8.00
2019-03-22T06:15:08.798Z,8.13
2019-03-22T06:17:59.327Z,7.50
2019-03-22T06:20:52.996Z,8.23
2019-03-22T06:23:35.165Z,8.77
2019-03-22T06:26:17.036Z,8.20
2019-03-22T06:28:48.911Z,8.57
2019-03-22T06:33:58.651Z,7.90
2019-03-22T06:36:29.744Z,7.50
2019-03-22T06:39:19.558Z,7.60
2019-03-22T06:41:51.869Z,6.80
2019-03-22T06:44:41.720Z,7.37
2019-03-22T06:47:15.913Z,7.77
2019-03-22T06:50:06.474Z,7.77
2019-03-22T06:52:56.451Z,7.40
2019-03-22T06:55:29.655Z,8.03
2019-03-22T06:58:00.794Z,7.83
2019-03-22T07:00:50.612Z,7.67
2019-03-22T07:03:21.828Z,9.10
2019-03-22T07:06:11.925Z,8.33
2019-03-22T07:08:43.102Z,8.77
2019-03-22T07:11:32.875Z,8.83
2019-03-22T07:14:04.202Z,7.90
2019-03-22T07:16:54.037Z,8.07
2019-03-22T07:19:44.000Z,7.67
2019-03-22T07:22:34.161Z,7.83
2019-03-22T07:25:05.891Z,7.60
2019-03-22T07:27:37.142Z,8.80
2019-03-22T07:30:29.757Z,8.17
2019-03-22T07:33:26.542Z,7.63
2019-03-22T07:35:59.461Z,8.10
2019-03-22T07:38:49.640Z,8.37
2019-03-22T07:41:21.690Z,7.03
2019-03-22T07:43:53.061Z,7.03
2019-03-22T07:46:42.984Z,8.57
2019-03-22T07:49:14.303Z,8.23
2019-03-22T07:51:45.981Z,8.17
2019-03-22T07:54:17.061Z,8.17
2019-03-22T07:56:48.410Z,8.03
2019-03-22T07:59:38.366Z,7.73
2019-03-22T08:02:09.420Z,7.27
2019-03-22T08:04:41.151Z,8.03
2019-03-22T08:07:30.906Z,8.13
2019-03-22T08:10:02.176Z,7.97
2019-03-22T08:12:53.618Z,8.13
2019-03-22T08:15:43.420Z,8.43
2019-03-22T08:18:15.027Z,8.40
2019-03-22T08:21:04.841Z,7.63
2019-03-22T08:23:54.666Z,8.77
2019-03-22T08:26:44.464Z,7.90
2019-03-22T08:29:15.564Z,8.93
2019-03-22T08:31:46.972Z,9.13
2019-03-22T08:34:18.400Z,8.57
2019-03-22T08:36:49.746Z,8.17
2019-03-22T08:39:21.552Z,7.97
2019-03-22T08:41:52.930Z,8.60
2019-03-22T08:44:24.936Z,8.90
2019-03-22T08:46:56.523Z,9.37
2019-03-22T08:49:46.596Z,8.90
2019-03-22T08:52:18.141Z,9.10
2019-03-22T08:54:49.323Z,8.93
2019-03-22T08:57:39.946Z,8.57
2019-03-22T09:00:12.462Z,8.80
2019-03-22T09:02:43.888Z,10.07
2019-03-22T09:05:15.006Z,9.53
2019-03-22T09:08:04.964Z,8.83
2019-03-22T09:10:36.643Z,8.37
2019-03-22T09:13:08.118Z,10.27
2019-03-22T09:15:41.491Z,10.50
2019-03-22T09:18:15.186Z,9.83
2019-03-22T09:20:46.742Z,10.33
2019-03-22T09:23:17.868Z,10.13
2019-03-22T09:25:59.457Z,10.43
2019-03-22T09:28:41.399Z,10.63
2019-03-22T09:31:12.970Z,10.77
2019-03-22T09:33:44.783Z,10.17
2019-03-22T09:36:34.533Z,10.10
2019-03-22T09:39:25.820Z,9.60
2019-03-22T09:41:57.257Z,9.90
2019-03-22T09:44:42.369Z,9.93
2019-03-22T09:47:03.238Z,10.73
2019-03-22T09:49:34.649Z,10.73
2019-03-22T09:52:06.213Z,10.17
2019-03-22T09:54:37.746Z,9.90
2019-03-22T09:57:27.516Z,10.87
2019-03-22T09:59:58.651Z,10.70
2019-03-22T10:02:29.838Z,10.57
2019-03-22T10:05:01.229Z,10.43
2019-03-22T10:07:32.431Z,10.53
2019-03-22T10:10:03.813Z,10.70
2019-03-22T10:12:34.966Z,11.20
2019-03-22T10:15:06.889Z,10.83
2019-03-22T10:17:56.747Z,10.43
2019-03-22T10:20:28.433Z,9.73
2019-03-22T10:23:01.556Z,10.30
2019-03-22T10:25:32.749Z,10.90
2019-03-22T10:28:04.035Z,10.67
2019-03-22T10:30:53.878Z,10.73
2019-03-22T10:33:25.077Z,10.47
2019-03-22T10:35:56.461Z,10.20
2019-03-22T10:38:46.231Z,11.37
2019-03-22T10:41:17.377Z,11.50
2019-03-22T10:43:48.558Z,10.93
2019-03-22T10:46:19.998Z,11.30
2019-03-22T10:48:51.140Z,10.90
2019-03-22T10:51:22.627Z,9.83
2019-03-22T10:54:12.480Z,11.30
2019-03-22T10:56:43.789Z,11.40
2019-03-22T10:59:15.839Z,12.17
2019-03-22T11:02:02.230Z,11.57
2019-03-22T11:04:38.444Z,11.17
2019-03-22T11:07:28.275Z,11.53
2019-03-22T11:09:59.746Z,11.30
2019-03-22T11:12:30.934Z,11.97
2019-03-22T11:15:02.148Z,10.33
2019-03-22T11:17:43.642Z,11.50
2019-03-22T11:20:15.895Z,11.23
2019-03-22T11:23:05.907Z,11.67
2019-03-22T11:26:03.785Z,11.83
2019-03-22T11:28:28.546Z,11.83
2019-03-22T11:31:28.156Z,10.90
2019-03-22T11:33:53.006Z,11.37
2019-03-22T11:36:42.801Z,10.97
2019-03-22T11:39:15.800Z,11.27
2019-03-22T11:42:05.657Z,11.43
2019-03-22T11:44:36.757Z,12.30
2019-03-22T11:47:08.202Z,11.43
2019-03-22T11:49:39.331Z,11.97
2019-03-22T11:52:10.787Z,11.57
2019-03-22T11:54:42.588Z,12.03
2019-03-22T11:57:13.768Z,11.40
2019-03-22T11:59:44.877Z,12.50
2019-03-22T12:02:22.294Z,12.57
2019-03-22T12:04:49.481Z,11.47
2019-03-22T12:07:20.634Z,12.17
2019-03-22T12:10:10.612Z,11.53
2019-03-22T12:12:41.945Z,12.03
2019-03-22T12:15:31.691Z,11.63
2019-03-22T12:18:02.878Z,11.67
2019-03-22T12:20:34.110Z,11.50
2019-03-22T12:23:05.523Z,11.77
2019-03-22T12:25:56.103Z,11.10
2019-03-22T12:28:27.281Z,12.20
2019-03-22T12:31:19.379Z,11.30
2019-03-22T12:34:08.898Z,10.70
2019-03-22T12:36:39.997Z,12.30
2019-03-22T12:39:29.826Z,11.90
2019-03-22T12:42:19.657Z,11.63
2019-03-22T12:45:11.074Z,11.73
2019-03-22T12:47:42.357Z,10.43
2019-03-22T12:50:32.080Z,9.97
2019-03-22T12:53:21.862Z,11.30
2019-03-22T12:58:46.898Z,10.00
2019-03-22T13:01:18.267Z,8.47
2019-03-22T13:04:08.069Z,9.30
2019-03-22T13:06:57.882Z,8.40
2019-03-22T13:09:47.806Z,8.00
2019-03-22T13:12:19.012Z,8.37
2019-03-22T13:15:09.013Z,8.53
2019-03-22T13:17:58.831Z,8.73
2019-03-22T13:20:29.922Z,8.73
2019-03-22T13:23:19.762Z,8.93
2019-03-22T13:25:50.993Z,9.00
2019-03-22T13:28:41.112Z,9.03
2019-03-22T13:31:12.214Z,8.43
2019-03-22T13:33:43.400Z,8.50
2019-03-22T13:36:33.548Z,9.07
2019-03-22T13:39:06.017Z,9.00
2019-03-22T13:41:37.343Z,9.03
2019-03-22T13:44:08.503Z,8.87
2019-03-22T13:46:58.405Z,8.83
2019-03-22T13:49:29.694Z,9.37
2019-03-22T13:52:00.841Z,9.00
2019-03-22T13:54:32.232Z,8.37
2019-03-22T13:57:13.006Z,8.53
2019-03-22T13:59:44.376Z,9.47
2019-03-22T14:02:15.823Z,8.50
2019-03-22T14:05:07.045Z,8.87
2019-03-22T14:07:56.911Z,8.40
2019-03-22T14:10:47.012Z,8.70
2019-03-22T14:13:36.839Z,8.00
2019-03-22T14:16:26.886Z,7.40
2019-03-22T14:19:16.680Z,7.80
2019-03-22T14:24:58.741Z,7.53
2019-03-22T14:27:48.787Z,7.03
2019-03-22T14:30:38.695Z,7.37
2019-03-22T14:33:13.699Z,7.13
2019-03-22T14:36:01.413Z,19.57
2019-03-22T14:38:51.474Z,6.83
2019-03-22T14:41:22.899Z,6.23
2019-03-22T14:44:13.244Z,5.63
2019-03-22T14:47:03.061Z,6.40
2019-03-22T14:49:52.886Z,6.60
2019-03-22T14:52:42.858Z,6.60
2019-03-22T14:55:32.688Z,6.03
2019-03-22T14:58:14.314Z,5.40
2019-03-22T15:00:56.406Z,5.83
2019-03-22T15:03:28.577Z,5.60
2019-03-22T15:06:00.098Z,5.50
2019-03-22T15:08:49.828Z,4.90
2019-03-22T15:11:20.940Z,4.83
2019-03-22T15:14:11.146Z,5.00
2019-03-22T15:17:01.198Z,5.73
2019-03-22T15:20:09.817Z,5.50
2019-03-22T15:23:27.341Z,6.27
2019-03-22T15:29:17.038Z,6.07
2019-03-22T15:32:06.922Z,6.87
2019-03-22T15:34:56.688Z,6.73
2019-03-22T15:38:05.264Z,7.67
2019-03-22T15:40:36.435Z,7.43
2019-03-22T15:43:26.225Z,7.83
2019-03-22T15:46:16.936Z,7.53
2019-03-22T15:49:06.947Z,7.40
2019-03-22T15:51:57.306Z,7.13
2019-03-22T15:54:28.987Z,6.33
2019-03-22T15:57:19.028Z,7.07
2019-03-22T16:00:02.125Z,8.87
2019-03-22T16:02:34.581Z,8.33
2019-03-22T16:05:06.968Z,7.23
2019-03-22T16:07:38.051Z,8.07
2019-03-22T16:10:11.583Z,8.73
2019-03-22T16:12:42.773Z,7.67
2019-03-22T16:15:14.390Z,9.70
2019-03-22T16:18:24.890Z,8.00
2019-03-22T16:20:59.995Z,7.60
2019-03-22T16:23:28.909Z,7.87
2019-03-22T16:26:18.731Z,7.40
2019-03-22T16:29:08.792Z,7.27
2019-03-22T16:31:58.589Z,8.00
2019-03-22T16:34:49.950Z,7.60
2019-03-22T16:37:21.197Z,7.53
2019-03-22T16:40:11.269Z,7.80
2019-03-22T16:43:01.097Z,9.60
2019-03-22T16:45:37.294Z,9.50
2019-03-22T16:50:45.723Z,9.03
2019-03-22T16:53:17.092Z,9.17
2019-03-22T16:55:48.790Z,10.40
2019-03-22T16:58:38.673Z,9.80
2019-03-22T17:01:20.769Z,10.60
2019-03-22T17:04:04.655Z,11.30
2019-03-22T17:06:39.694Z,9.43
2019-03-22T17:09:29.823Z,10.53
2019-03-22T17:12:03.002Z,9.93
2019-03-22T17:14:34.169Z,10.10
2019-03-22T17:17:05.771Z,8.53
2019-03-22T17:19:47.345Z,8.60
2019-03-22T17:22:29.330Z,9.90
2019-03-22T17:25:00.572Z,9.47
2019-03-22T17:27:32.706Z,9.30
2019-03-22T17:30:05.183Z,8.63
2019-03-22T17:32:55.023Z,8.63
2019-03-22T17:35:45.133Z,8.90
2019-03-22T17:38:34.999Z,8.67
2019-03-22T17:41:24.763Z,9.00
2019-03-22T17:44:14.569Z,9.10
2019-03-22T17:47:06.133Z,8.10
2019-03-22T17:49:44.278Z,9.40
2019-03-22T17:52:10.630Z,9.50
2019-03-22T17:54:43.643Z,7.57
2019-03-22T17:57:19.779Z,8.43
2019-03-22T18:02:46.241Z,9.20
2019-03-22T18:05:17.468Z,8.27
2019-03-22T18:07:53.224Z,9.00
2019-03-22T18:14:12.615Z,8.93
2019-03-22T18:16:44.144Z,9.67
2019-03-22T18:19:19.057Z,9.97
2019-03-22T18:21:54.563Z,10.63
2019-03-22T18:24:39.803Z,9.20
2019-03-22T18:27:31.735Z,9.50
2019-03-22T18:30:04.030Z,9.57
2019-03-22T18:32:52.664Z,9.23
2019-03-22T18:35:27.095Z,10.90
2019-03-22T18:38:18.681Z,10.97
2019-03-22T18:41:27.288Z,10.60
2019-03-22T18:44:24.608Z,11.13
2019-03-22T18:47:35.628Z,10.40
2019-03-22T18:50:33.943Z,10.20
2019-03-22T18:56:03.330Z,10.50
2019-03-22T18:58:34.748Z,10.23
2019-03-22T19:01:06.298Z,10.40
2019-03-22T19:03:37.502Z,12.67
2019-03-22T19:06:28.063Z,10.77
2019-03-22T19:09:18.111Z,11.67
2019-03-22T19:12:07.955Z,11.13
2019-03-22T19:14:39.273Z,11.30
2019-03-22T19:17:31.362Z,11.20
2019-03-22T19:20:05.188Z,10.73
2019-03-22T19:22:39.389Z,11.93
2019-03-22T19:25:54.586Z,10.70
2019-03-22T19:28:48.009Z,11.00
2019-03-22T19:31:20.503Z,11.93
2019-03-22T19:33:52.618Z,11.30
2019-03-22T19:36:28.557Z,11.70
2019-03-22T19:39:30.377Z,11.63
2019-03-22T19:42:21.017Z,12.23
2019-03-22T19:47:39.456Z,11.90
2019-03-22T19:50:32.403Z,12.53
2019-03-22T19:53:16.312Z,12.77
2019-03-22T19:56:13.659Z,12.63
2019-03-22T19:58:44.919Z,13.25
2019-03-22T20:01:26.844Z,12.40
2019-03-22T20:04:09.927Z,13.27
2019-03-22T20:06:52.133Z,13.23
2019-03-22T20:09:33.993Z,13.47
2019-03-22T20:12:06.966Z,12.23
2019-03-22T20:14:57.154Z,13.33
2019-03-22T20:17:47.244Z,13.17
2019-03-22T20:20:20.411Z,13.73
2019-03-22T20:23:12.599Z,13.20
2019-03-22T20:29:04.296Z,13.23
2019-03-22T20:31:55.430Z,13.17
2019-03-22T20:34:26.669Z,13.37
2019-03-22T20:37:37.570Z,13.63
2019-03-22T20:40:10.360Z,14.13
2019-03-22T20:42:41.915Z,15.47
2019-03-22T20:45:24.093Z,14.37
2019-03-22T20:48:09.973Z,14.67
2019-03-22T20:50:42.211Z,13.90
2019-03-22T20:53:32.431Z,14.50
2019-03-22T20:56:22.703Z,14.23
2019-03-22T20:59:01.716Z,15.10
2019-03-22T21:01:46.635Z,15.87
2019-03-22T21:04:17.879Z,14.20
2019-03-22T21:09:36.225Z,15.07
2019-03-22T21:12:07.377Z,16.10
2019-03-22T21:14:41.712Z,15.00
2019-03-22T21:17:16.153Z,15.10
2019-03-22T21:19:47.761Z,16.30
2019-03-22T21:22:20.335Z,15.23
2019-03-22T21:24:51.903Z,15.83
2019-03-22T21:27:26.762Z,15.73
2019-03-22T21:30:00.785Z,15.87
2019-03-22T21:32:50.682Z,17.03
2019-03-22T21:35:24.524Z,14.63
2019-03-22T21:37:55.902Z,16.00
2019-03-22T21:40:45.686Z,17.17
2019-03-22T21:43:18.053Z,15.57
2019-03-22T21:45:49.199Z,15.23
2019-03-22T21:48:20.680Z,14.80
2019-03-22T21:50:52.052Z,13.47
2019-03-22T21:53:23.351Z,14.53
2019-03-22T21:55:55.197Z,14.50
2019-03-22T21:58:28.897Z,14.53
2019-03-22T22:01:00.006Z,15.27
2019-03-22T22:03:49.916Z,13.97
2019-03-22T22:06:40.476Z,15.63
2019-03-22T22:09:11.702Z,14.30
2019-03-22T22:11:43.138Z,13.33
2019-03-22T22:14:14.647Z,13.07
2019-03-22T22:17:04.739Z,12.03
2019-03-22T22:19:36.000Z,12.00
2019-03-22T22:22:28.120Z,11.77
2019-03-22T22:25:17.907Z,12.00
2019-03-22T22:27:49.051Z,12.23
2019-03-22T22:30:29.760Z,12.87
2019-03-22T22:33:19.535Z,14.57
2019-03-22T22:35:58.679Z,13.83
2019-03-22T22:38:23.575Z,12.83
2019-03-22T22:41:13.453Z,13.53
2019-03-22T22:43:45.628Z,14.43
2019-03-22T22:49:12.415Z,14.57
2019-03-22T22:51:43.700Z,14.23
2019-03-22T22:54:52.588Z,14.73
2019-03-22T22:57:23.851Z,14.43
2019-03-22T23:00:15.117Z,15.83
2019-03-22T23:02:46.966Z,14.50
2019-03-22T23:05:44.818Z,15.07
2019-03-22T23:08:34.677Z,14.17
2019-03-22T23:11:06.113Z,15.20
2019-03-22T23:13:55.897Z,15.43
2019-03-22T23:16:29.395Z,15.27
2019-03-22T23:19:25.394Z,15.90
2019-03-22T23:22:15.424Z,14.93
2019-03-22T23:25:05.507Z,15.70
2019-03-22T23:27:55.905Z,15.23
2019-03-22T23:30:28.252Z,15.50
2019-03-22T23:33:18.605Z,15.67
2019-03-22T23:36:08.718Z,14.60
2019-03-22T23:38:58.878Z,14.90
2019-03-22T23:41:30.103Z,15.53
2019-03-22T23:44:01.280Z,14.47
2019-03-22T23:46:51.026Z,16.43
2019-03-22T23:49:40.828Z,16.23
2019-03-22T23:52:30.932Z,15.03
2019-03-22T23:55:02.071Z,15.23
2019-03-22T23:57:51.891Z,15.80
